createdAt,value
2023-01-25T00:00:16.089Z,30.13
2023-01-25T00:04:37.907Z,24.23
2023-01-25T00:08:59.998Z,27.42
2023-01-25T00:13:21.647Z,27.33
2023-01-25T00:17:43.807Z,28.33
2023-01-25T00:22:06.142Z,25.70
2023-01-25T00:26:31.166Z,31.45
2023-01-25T00:30:53.048Z,27.70
2023-01-25T00:35:16.013Z,28.10
2023-01-25T00:39:39.334Z,24.38
2023-01-25T00:44:01.593Z,24.08
2023-01-25T00:48:23.387Z,25.38
2023-01-25T00:52:45.650Z,25.58
2023-01-25T00:57:08.933Z,24.98
2023-01-25T01:01:31.236Z,23.73
2023-01-25T01:06:06.917Z,27.42
2023-01-25T01:10:28.836Z,26.10
2023-01-25T01:14:51.186Z,22.52
2023-01-25T01:19:14.458Z,23.60
2023-01-25T01:23:36.845Z,27.08
2023-01-25T01:27:59.076Z,24.38
2023-01-25T01:32:21.464Z,22.48
2023-01-25T01:36:46.166Z,25.17
2023-01-25T01:41:09.027Z,24.75
2023-01-25T01:45:48.137Z,22.02
2023-01-25T01:50:22.568Z,23.38
2023-01-25T01:55:14.187Z,21.85
2023-01-25T02:00:06.586Z,22.85
2023-01-25T02:04:39.245Z,21.92
2023-01-25T02:09:06.726Z,21.00
2023-01-25T02:13:29.346Z,24.35
2023-01-25T02:17:52.098Z,24.13
2023-01-25T02:22:16.660Z,23.25
2023-01-25T02:26:39.709Z,22.25
2023-01-25T02:31:02.242Z,23.40
2023-01-25T02:36:11.643Z,22.67
2023-01-25T02:41:08.486Z,22.67
2023-01-25T02:45:31.086Z,23.00
2023-01-25T02:49:53.027Z,26.08
2023-01-25T02:54:17.307Z,26.08
2023-01-25T02:58:39.601Z,25.17
2023-01-25T03:03:01.908Z,22.92
2023-01-25T03:07:23.948Z,27.58
2023-01-25T03:11:45.957Z,30.65
2023-01-25T03:16:12.034Z,28.42
2023-01-25T03:20:36.366Z,30.05
2023-01-25T03:24:58.628Z,29.38
2023-01-25T03:29:21.327Z,25.65
2023-01-25T03:33:45.767Z,24.67
2023-01-25T03:38:08.207Z,22.80
2023-01-25T03:42:30.439Z,29.45
2023-01-25T03:46:53.863Z,25.77
2023-01-25T03:51:16.815Z,25.15
2023-01-25T03:55:38.726Z,22.77
2023-01-25T04:00:00.814Z,29.73
2023-01-25T04:04:24.893Z,23.65
2023-01-25T04:08:48.067Z,26.45
2023-01-25T04:13:10.549Z,26.40
2023-01-25T04:17:32.669Z,29.25
2023-01-25T04:22:09.189Z,31.63
2023-01-25T04:26:33.169Z,25.95
2023-01-25T04:31:01.175Z,25.35
2023-01-25T04:35:29.568Z,24.70
2023-01-25T04:39:51.968Z,21.90
2023-01-25T04:44:15.187Z,20.08
2023-01-25T04:48:37.769Z,34.53
2023-01-25T04:53:02.308Z,21.15
2023-01-25T04:57:25.749Z,21.27
2023-01-25T05:01:48.418Z,20.02
2023-01-25T05:06:10.588Z,20.65
2023-01-25T05:10:32.817Z,44.67
2023-01-25T05:15:15.375Z,21.75
2023-01-25T05:19:37.649Z,22.20
2023-01-25T05:24:01.954Z,20.63
2023-01-25T05:28:25.153Z,23.45
2023-01-25T05:33:09.972Z,23.92
2023-01-25T05:37:32.362Z,21.27
2023-01-25T05:41:59.574Z,22.50
2023-01-25T05:46:22.381Z,22.92
2023-01-25T05:50:46.008Z,62.13
2023-01-25T05:55:15.069Z,22.90
2023-01-25T05:59:37.529Z,22.90
2023-01-25T06:04:03.241Z,24.15
2023-01-25T06:08:26.284Z,25.58
2023-01-25T06:12:49.605Z,21.27
2023-01-25T06:17:12.222Z,25.88
2023-01-25T06:22:09.380Z,24.85
2023-01-25T06:26:31.369Z,25.92
2023-01-25T06:30:53.801Z,25.80
2023-01-25T06:35:16.248Z,26.58
2023-01-25T06:39:38.660Z,26.77
2023-01-25T06:44:00.935Z,27.38
2023-01-25T06:48:22.932Z,29.95
2023-01-25T06:52:55.208Z,28.55
2023-01-25T06:57:17.015Z,29.83
2023-01-25T07:01:39.430Z,27.92
2023-01-25T07:06:04.822Z,30.00
2023-01-25T07:10:30.948Z,36.00
2023-01-25T07:14:54.028Z,28.60
2023-01-25T07:19:17.986Z,30.00
2023-01-25T07:23:41.808Z,30.20
2023-01-25T07:28:03.829Z,34.05
2023-01-25T07:32:25.832Z,31.35
2023-01-25T07:36:48.249Z,33.53
2023-01-25T07:41:10.268Z,31.88
2023-01-25T07:45:32.142Z,35.10
2023-01-25T07:49:55.213Z,38.38
2023-01-25T07:54:17.469Z,41.10
2023-01-25T07:58:40.569Z,36.80
2023-01-25T08:03:02.527Z,40.22
2023-01-25T08:07:25.625Z,33.55
2023-01-25T08:11:49.605Z,34.40
2023-01-25T08:16:15.446Z,36.97
2023-01-25T08:20:38.114Z,37.88
2023-01-25T08:25:01.406Z,36.92
2023-01-25T08:29:24.146Z,36.67
2023-01-25T08:33:48.147Z,35.38
2023-01-25T08:38:09.947Z,32.42
2023-01-25T08:42:32.148Z,34.67
2023-01-25T08:46:55.580Z,31.40
2023-01-25T08:51:17.839Z,32.78
2023-01-25T08:55:41.807Z,28.17
2023-01-25T09:00:04.447Z,28.83
2023-01-25T09:04:28.591Z,30.88
2023-01-25T09:08:50.935Z,27.17
2023-01-25T09:13:13.066Z,26.15
2023-01-25T09:17:39.124Z,27.25
2023-01-25T09:22:01.310Z,23.42
2023-01-25T09:26:23.391Z,26.45
2023-01-25T09:30:48.821Z,26.10
2023-01-25T09:35:21.331Z,21.95
2023-01-25T09:39:43.810Z,23.92
2023-01-25T09:44:42.655Z,23.30
2023-01-25T09:49:34.544Z,24.15
2023-01-25T09:53:58.766Z,24.67
2023-01-25T09:58:28.288Z,24.70
2023-01-25T10:03:27.456Z,27.40
2023-01-25T10:08:15.347Z,24.30
2023-01-25T10:12:39.410Z,24.48
2023-01-25T10:17:40.446Z,24.02
2023-01-25T10:22:15.991Z,25.85
2023-01-25T10:26:43.194Z,24.80
2023-01-25T10:31:22.849Z,28.00
2023-01-25T10:35:48.353Z,25.23
2023-01-25T10:40:22.729Z,24.40
2023-01-25T10:44:44.827Z,28.77
2023-01-25T10:49:47.120Z,31.98
2023-01-25T10:54:19.265Z,33.25
2023-01-25T10:58:47.924Z,32.80
2023-01-25T11:03:22.688Z,29.30
2023-01-25T11:07:49.186Z,29.70
2023-01-25T11:12:21.105Z,31.05
2023-01-25T11:16:50.851Z,29.77
2023-01-25T11:21:25.880Z,29.77
2023-01-25T11:25:48.007Z,31.08
2023-01-25T11:30:19.093Z,32.97
2023-01-25T11:34:40.929Z,33.20
2023-01-25T11:39:34.304Z,33.08
2023-01-25T11:44:32.602Z,33.70
2023-01-25T11:49:18.580Z,32.20
2023-01-25T11:53:51.567Z,30.48
2023-01-25T11:59:14.375Z,33.00
2023-01-25T12:04:15.598Z,31.60
2023-01-25T12:09:12.350Z,32.55
2023-01-25T12:13:43.674Z,38.85
2023-01-25T12:18:14.873Z,39.42
2023-01-25T12:23:00.105Z,38.30
2023-01-25T12:27:55.142Z,36.78
2023-01-25T12:32:37.426Z,45.13
2023-01-25T12:37:10.047Z,41.15
2023-01-25T12:41:52.151Z,44.05
2023-01-25T12:46:42.836Z,34.50
2023-01-25T12:51:05.013Z,39.38
2023-01-25T12:55:28.555Z,37.30
2023-01-25T13:00:02.936Z,39.40
2023-01-25T13:05:13.661Z,43.20
2023-01-25T13:09:54.007Z,41.35
2023-01-25T13:14:19.458Z,65.32
2023-01-25T13:18:41.670Z,125.72
2023-01-25T13:23:03.658Z,163.23
2023-01-25T13:27:28.486Z,76.43
2023-01-25T13:31:53.568Z,47.58
2023-01-25T13:36:41.767Z,42.60
2023-01-25T13:41:15.594Z,46.63
2023-01-25T13:45:40.882Z,44.60
2023-01-25T13:50:14.833Z,47.42
2023-01-25T13:54:47.889Z,49.25
2023-01-25T13:59:28.597Z,46.92
2023-01-25T14:03:59.641Z,46.08
2023-01-25T14:08:22.408Z,53.28
2023-01-25T14:12:45.243Z,49.08
2023-01-25T14:17:23.841Z,50.75
2023-01-25T14:21:45.827Z,51.63
2023-01-25T14:26:27.282Z,56.92
2023-01-25T14:31:01.726Z,51.33
2023-01-25T14:35:53.734Z,58.25
2023-01-25T14:40:22.427Z,57.33
2023-01-25T14:44:45.678Z,57.50
2023-01-25T14:49:26.406Z,62.30
2023-01-25T14:53:55.806Z,56.25
2023-01-25T14:58:22.317Z,57.60
2023-01-25T15:02:56.490Z,57.67
2023-01-25T15:07:46.179Z,66.80
2023-01-25T15:12:17.556Z,56.72
2023-01-25T15:16:40.251Z,58.50
2023-01-25T15:21:02.324Z,56.38
2023-01-25T15:25:25.063Z,57.13
2023-01-25T15:29:47.698Z,63.63
2023-01-25T15:34:25.424Z,61.10
2023-01-25T15:38:47.349Z,60.60
2023-01-25T15:43:17.971Z,65.20
2023-01-25T15:47:40.389Z,58.85
2023-01-25T15:52:02.790Z,65.32
2023-01-25T15:56:30.270Z,72.03
2023-01-25T16:00:52.336Z,66.78
2023-01-25T16:05:14.288Z,66.60
2023-01-25T16:09:36.221Z,65.88
2023-01-25T16:13:58.328Z,64.63
2023-01-25T16:18:20.488Z,66.47
2023-01-25T16:22:42.531Z,60.85
2023-01-25T16:27:04.998Z,67.57
2023-01-25T16:31:33.016Z,62.55
2023-01-25T16:36:13.231Z,67.68
2023-01-25T16:40:38.915Z,66.75
2023-01-25T16:45:01.007Z,79.90
2023-01-25T16:49:28.178Z,80.75
2023-01-25T16:53:52.889Z,83.03
2023-01-25T16:58:14.828Z,79.55
2023-01-25T17:02:56.943Z,79.05
2023-01-25T17:07:20.307Z,81.85
2023-01-25T17:11:42.528Z,83.32
2023-01-25T17:16:05.555Z,83.75
2023-01-25T17:20:28.028Z,86.72
2023-01-25T17:24:49.888Z,87.53
2023-01-25T17:29:12.935Z,80.13
2023-01-25T17:33:34.861Z,71.28
2023-01-25T17:37:57.565Z,79.45
2023-01-25T17:42:19.900Z,81.32
2023-01-25T17:46:41.765Z,80.13
2023-01-25T17:51:04.577Z,82.95
2023-01-25T17:55:26.623Z,71.75
2023-01-25T17:59:48.626Z,70.88
2023-01-25T18:04:13.337Z,80.03
2023-01-25T18:08:48.363Z,88.32
2023-01-25T18:13:10.437Z,88.22
2023-01-25T18:17:38.428Z,89.45
2023-01-25T18:22:00.507Z,83.03
2023-01-25T18:26:33.506Z,84.82
2023-01-25T18:31:10.021Z,86.50
2023-01-25T18:35:33.084Z,85.32
2023-01-25T18:39:56.328Z,85.15
2023-01-25T18:44:19.581Z,80.50
2023-01-25T18:48:43.761Z,80.25
2023-01-25T18:53:05.535Z,83.32
2023-01-25T18:57:28.174Z,82.57
2023-01-25T19:01:50.550Z,84.70
2023-01-25T19:06:13.980Z,88.85
2023-01-25T19:10:35.793Z,88.65
2023-01-25T19:14:59.791Z,96.10
2023-01-25T19:19:22.600Z,88.50
2023-01-25T19:23:45.044Z,87.97
2023-01-25T19:28:07.127Z,87.57
2023-01-25T19:32:29.343Z,87.50
2023-01-25T19:36:51.916Z,87.55
2023-01-25T19:41:20.641Z,86.75
2023-01-25T19:45:42.420Z,79.88
2023-01-25T19:50:05.155Z,81.35
2023-01-25T19:54:30.387Z,91.47
2023-01-25T19:58:52.844Z,87.38
2023-01-25T20:03:16.801Z,83.82
2023-01-25T20:07:39.445Z,82.00
2023-01-25T20:12:05.999Z,82.93
2023-01-25T20:16:45.917Z,82.55
2023-01-25T20:21:12.031Z,77.05
2023-01-25T20:25:34.797Z,82.90
2023-01-25T20:29:56.727Z,83.82
2023-01-25T20:34:22.214Z,79.55
2023-01-25T20:38:44.803Z,72.43
2023-01-25T20:43:07.211Z,71.20
2023-01-25T20:47:29.424Z,72.10
2023-01-25T20:51:51.748Z,65.63
2023-01-25T20:56:15.131Z,69.20
2023-01-25T21:00:37.904Z,74.35
2023-01-25T21:05:00.253Z,71.88
2023-01-25T21:09:23.427Z,75.05
2023-01-25T21:13:47.405Z,76.55
2023-01-25T21:18:09.832Z,66.38
2023-01-25T21:22:32.996Z,64.70
2023-01-25T21:26:55.078Z,67.20
2023-01-25T21:31:23.879Z,70.18
2023-01-25T21:35:45.955Z,70.38
2023-01-25T21:40:09.152Z,65.93
2023-01-25T21:44:50.187Z,66.85
2023-01-25T21:49:31.677Z,72.57
2023-01-25T21:53:53.831Z,70.57
2023-01-25T21:58:18.929Z,69.22
2023-01-25T22:02:40.903Z,71.00
2023-01-25T22:07:04.193Z,62.00
2023-01-25T22:11:26.223Z,70.47
2023-01-25T22:15:48.286Z,61.42
2023-01-25T22:20:11.758Z,65.03
2023-01-25T22:24:33.736Z,60.17
2023-01-25T22:28:58.376Z,61.90
2023-01-25T22:33:21.715Z,62.83
2023-01-25T22:37:43.684Z,62.30
2023-01-25T22:42:05.649Z,61.42
2023-01-25T22:46:29.664Z,66.60
2023-01-25T22:50:51.647Z,65.50
2023-01-25T22:55:13.783Z,66.60
2023-01-25T22:59:35.827Z,66.55
2023-01-25T23:03:58.379Z,67.97
2023-01-25T23:08:20.437Z,65.25
2023-01-25T23:12:42.287Z,62.85
2023-01-25T23:17:23.086Z,60.75
2023-01-25T23:21:45.167Z,64.85
2023-01-25T23:26:09.059Z,59.13
2023-01-25T23:30:32.312Z,64.32
2023-01-25T23:34:54.349Z,62.42
2023-01-25T23:39:16.205Z,53.90
2023-01-25T23:43:38.549Z,52.88
2023-01-25T23:48:00.702Z,51.85
2023-01-25T23:52:23.164Z,56.53
2023-01-25T23:56:45.069Z,59.15
